sensor_id;sensor_type;location;lat;lon;timestamp;pressure;altitude;pressure_sealevel;temperature;humidity
36284;BME280;56085;48.910;9.478;2023-12-20T00:00:53;98199.63;;;11.34;49.03
36284;BME280;56085;48.910;9.478;2023-12-20T00:03:18;98193.78;;;11.63;48.42
36284;BME280;56085;48.910;9.478;2023-12-20T00:05:43;98178.59;;;11.30;49.13
36284;BME280;56085;48.910;9.478;2023-12-20T00:08:09;98183.38;;;11.56;49.04
36284;BME280;56085;48.910;9.478;2023-12-20T00:10:34;98185.72;;;11.54;49.47
36284;BME280;56085;48.910;9.478;2023-12-20T00:12:59;98181.31;;;11.49;49.57
36284;BME280;56085;48.910;9.478;2023-12-20T00:15:24;98176.91;;;11.72;49.23
36284;BME280;56085;48.910;9.478;2023-12-20T00:17:50;98169.25;;;11.61;49.25
36284;BME280;56085;48.910;9.478;2023-12-20T00:20:15;98173.41;;;12.01;48.56
36284;BME280;56085;48.910;9.478;2023-12-20T00:22:40;98172.66;;;11.78;49.17
36284;BME280;56085;48.910;9.478;2023-12-20T00:25:06;98170.16;;;11.96;49.09
36284;BME280;56085;48.910;9.478;2023-12-20T00:27:32;98172.84;;;12.15;49.05
36284;BME280;56085;48.910;9.478;2023-12-20T00:29:57;98161.00;;;12.18;48.71
36284;BME280;56085;48.910;9.478;2023-12-20T00:32:22;98160.22;;;12.18;48.80
36284;BME280;56085;48.910;9.478;2023-12-20T00:34:47;98158.03;;;12.04;49.33
36284;BME280;56085;48.910;9.478;2023-12-20T00:37:13;98161.22;;;12.06;49.21
36284;BME280;56085;48.910;9.478;2023-12-20T00:39:38;98160.53;;;12.13;49.41
36284;BME280;56085;48.910;9.478;2023-12-20T00:42:03;98163.28;;;12.13;49.61
36284;BME280;56085;48.910;9.478;2023-12-20T00:44:28;98155.53;;;11.95;50.21
36284;BME280;56085;48.910;9.478;2023-12-20T00:46:53;98153.81;;;12.44;49.05
36284;BME280;56085;48.910;9.478;2023-12-20T00:49:18;98158.72;;;12.28;49.29
36284;BME280;56085;48.910;9.478;2023-12-20T00:51:44;98147.66;;;12.28;49.36
36284;BME280;56085;48.910;9.478;2023-12-20T00:54:09;98156.78;;;12.28;49.35
36284;BME280;56085;48.910;9.478;2023-12-20T00:56:34;98157.00;;;12.16;49.55
36284;BME280;56085;48.910;9.478;2023-12-20T00:59:00;98153.47;;;12.19;49.49
36284;BME280;56085;48.910;9.478;2023-12-20T01:01:25;98153.56;;;12.26;49.06
36284;BME280;56085;48.910;9.478;2023-12-20T01:03:50;98141.25;;;12.23;49.40
36284;BME280;56085;48.910;9.478;2023-12-20T01:06:16;98158.25;;;12.22;49.66
36284;BME280;56085;48.910;9.478;2023-12-20T01:08:41;98165.94;;;12.02;49.55
36284;BME280;56085;48.910;9.478;2023-12-20T01:11:06;98152.91;;;12.06;49.69
36284;BME280;56085;48.910;9.478;2023-12-20T01:13:32;98154.09;;;12.05;49.84
36284;BME280;56085;48.910;9.478;2023-12-20T01:15:57;98162.91;;;12.14;50.07
36284;BME280;56085;48.910;9.478;2023-12-20T01:18:22;98156.00;;;12.01;50.05
36284;BME280;56085;48.910;9.478;2023-12-20T01:20:47;98154.59;;;12.14;49.38
36284;BME280;56085;48.910;9.478;2023-12-20T01:23:12;98164.56;;;11.92;50.06
36284;BME280;56085;48.910;9.478;2023-12-20T01:25:37;98157.03;;;11.93;50.35
36284;BME280;56085;48.910;9.478;2023-12-20T01:28:03;98171.59;;;12.13;49.49
36284;BME280;56085;48.910;9.478;2023-12-20T01:30:28;98175.06;;;12.06;49.69
36284;BME280;56085;48.910;9.478;2023-12-20T01:32:53;98174.53;;;11.97;50.01
36284;BME280;56085;48.910;9.478;2023-12-20T01:35:19;98169.31;;;11.92;50.36
36284;BME280;56085;48.910;9.478;2023-12-20T01:37:44;98172.16;;;11.95;50.04
36284;BME280;56085;48.910;9.478;2023-12-20T01:40:09;98172.16;;;11.95;50.24
36284;BME280;56085;48.910;9.478;2023-12-20T01:42:35;98178.69;;;11.83;50.45
36284;BME280;56085;48.910;9.478;2023-12-20T01:45:00;98177.50;;;11.84;50.67
36284;BME280;56085;48.910;9.478;2023-12-20T01:47:25;98173.88;;;11.80;50.55
36284;BME280;56085;48.910;9.478;2023-12-20T01:49:52;98179.94;;;11.90;50.67
36284;BME280;56085;48.910;9.478;2023-12-20T01:52:17;98159.38;;;11.91;50.54
36284;BME280;56085;48.910;9.478;2023-12-20T01:54:42;98168.59;;;11.95;50.09
36284;BME280;56085;48.910;9.478;2023-12-20T01:57:07;98173.75;;;11.96;50.41
36284;BME280;56085;48.910;9.478;2023-12-20T01:59:33;98169.25;;;11.88;50.49
36284;BME280;56085;48.910;9.478;2023-12-20T02:01:59;98173.53;;;11.85;50.92
36284;BME280;56085;48.910;9.478;2023-12-20T02:04:24;98165.94;;;11.79;51.29
36284;BME280;56085;48.910;9.478;2023-12-20T02:06:52;98173.50;;;11.82;51.24
36284;BME280;56085;48.910;9.478;2023-12-20T02:09:17;98172.97;;;11.73;51.41
36284;BME280;56085;48.910;9.478;2023-12-20T02:11:43;98166.63;;;11.72;51.46
36284;BME280;56085;48.910;9.478;2023-12-20T02:14:08;98158.53;;;11.86;51.22
36284;BME280;56085;48.910;9.478;2023-12-20T02:16:33;98168.34;;;11.80;50.98
36284;BME280;56085;48.910;9.478;2023-12-20T02:18:58;98154.63;;;11.91;51.13
36284;BME280;56085;48.910;9.478;2023-12-20T02:21:33;98163.09;;;11.75;51.58
36284;BME280;56085;48.910;9.478;2023-12-20T02:24:01;98163.19;;;11.79;51.34
36284;BME280;56085;48.910;9.478;2023-12-20T02:26:26;98167.69;;;11.91;50.94
36284;BME280;56085;48.910;9.478;2023-12-20T02:28:51;98167.28;;;11.88;51.48
36284;BME280;56085;48.910;9.478;2023-12-20T02:31:20;98162.00;;;11.80;51.49
36284;BME280;56085;48.910;9.478;2023-12-20T02:33:45;98164.88;;;11.87;51.37
36284;BME280;56085;48.910;9.478;2023-12-20T02:36:10;98160.03;;;11.80;51.65
36284;BME280;56085;48.910;9.478;2023-12-20T02:38:35;98162.47;;;11.85;51.45
36284;BME280;56085;48.910;9.478;2023-12-20T02:41:00;98164.97;;;11.67;52.04
36284;BME280;56085;48.910;9.478;2023-12-20T02:43:26;98182.50;;;11.52;52.44
36284;BME280;56085;48.910;9.478;2023-12-20T02:45:51;98171.28;;;11.41;52.59
36284;BME280;56085;48.910;9.478;2023-12-20T02:48:17;98175.41;;;11.28;53.41
36284;BME280;56085;48.910;9.478;2023-12-20T02:50:42;98178.84;;;11.21;53.99
36284;BME280;56085;48.910;9.478;2023-12-20T02:53:07;98178.78;;;11.17;53.81
36284;BME280;56085;48.910;9.478;2023-12-20T02:55:32;98172.38;;;11.13;54.31
36284;BME280;56085;48.910;9.478;2023-12-20T02:57:58;98176.78;;;10.95;55.04
36284;BME280;56085;48.910;9.478;2023-12-20T03:00:23;98165.09;;;10.82;54.80
36284;BME280;56085;48.910;9.478;2023-12-20T03:02:49;98173.41;;;11.05;55.13
36284;BME280;56085;48.910;9.478;2023-12-20T03:05:14;98175.31;;;11.24;55.01
36284;BME280;56085;48.910;9.478;2023-12-20T03:07:40;98178.91;;;11.25;54.93
36284;BME280;56085;48.910;9.478;2023-12-20T03:10:05;98181.56;;;11.17;54.96
36284;BME280;56085;48.910;9.478;2023-12-20T03:12:32;98174.09;;;10.79;55.86
36284;BME280;56085;48.910;9.478;2023-12-20T03:14:57;98179.72;;;10.82;56.49
36284;BME280;56085;48.910;9.478;2023-12-20T03:17:22;98186.25;;;10.35;57.63
36284;BME280;56085;48.910;9.478;2023-12-20T03:19:48;98184.66;;;10.54;57.72
36284;BME280;56085;48.910;9.478;2023-12-20T03:22:13;98185.38;;;10.31;58.61
36284;BME280;56085;48.910;9.478;2023-12-20T03:24:38;98188.81;;;10.44;57.83
36284;BME280;56085;48.910;9.478;2023-12-20T03:27:03;98193.91;;;10.61;58.01
36284;BME280;56085;48.910;9.478;2023-12-20T03:29:29;98196.25;;;10.59;58.00
36284;BME280;56085;48.910;9.478;2023-12-20T03:31:54;98199.06;;;10.63;57.48
36284;BME280;56085;48.910;9.478;2023-12-20T03:34:19;98203.28;;;10.57;57.79
36284;BME280;56085;48.910;9.478;2023-12-20T03:36:44;98199.72;;;10.76;57.53
36284;BME280;56085;48.910;9.478;2023-12-20T03:39:09;98194.56;;;10.74;57.12
36284;BME280;56085;48.910;9.478;2023-12-20T03:41:35;98193.69;;;10.90;56.88
36284;BME280;56085;48.910;9.478;2023-12-20T03:44:00;98195.50;;;10.62;57.19
36284;BME280;56085;48.910;9.478;2023-12-20T03:46:25;98193.47;;;10.40;57.47
36284;BME280;56085;48.910;9.478;2023-12-20T03:48:50;98199.44;;;10.42;57.87
36284;BME280;56085;48.910;9.478;2023-12-20T03:51:15;98201.34;;;10.57;57.79
36284;BME280;56085;48.910;9.478;2023-12-20T03:53:41;98202.94;;;10.23;58.29
36284;BME280;56085;48.910;9.478;2023-12-20T03:56:06;98205.06;;;10.29;58.63
36284;BME280;56085;48.910;9.478;2023-12-20T03:58:31;98198.50;;;10.18;58.76
36284;BME280;56085;48.910;9.478;2023-12-20T04:00:56;98202.88;;;10.19;58.48
36284;BME280;56085;48.910;9.478;2023-12-20T04:03:21;98187.59;;;10.61;57.57
36284;BME280;56085;48.910;9.478;2023-12-20T04:05:47;98193.25;;;10.13;58.09
36284;BME280;56085;48.910;9.478;2023-12-20T04:08:12;98189.38;;;9.98;58.85
36284;BME280;56085;48.910;9.478;2023-12-20T04:10:37;98195.22;;;10.12;58.63
36284;BME280;56085;48.910;9.478;2023-12-20T04:13:03;98196.09;;;10.17;58.42
36284;BME280;56085;48.910;9.478;2023-12-20T04:15:28;98208.72;;;9.98;58.36
36284;BME280;56085;48.910;9.478;2023-12-20T04:17:53;98198.50;;;10.18;58.20
36284;BME280;56085;48.910;9.478;2023-12-20T04:20:19;98203.38;;;10.25;58.28
36284;BME280;56085;48.910;9.478;2023-12-20T04:22:44;98207.75;;;10.26;58.69
36284;BME280;56085;48.910;9.478;2023-12-20T04:25:09;98199.97;;;10.31;57.97
36284;BME280;56085;48.910;9.478;2023-12-20T04:27:34;98209.63;;;10.22;58.45
36284;BME280;56085;48.910;9.478;2023-12-20T04:30:00;98219.25;;;10.28;57.81
36284;BME280;56085;48.910;9.478;2023-12-20T04:32:25;98216.00;;;10.06;58.00
36284;BME280;56085;48.910;9.478;2023-12-20T04:34:50;98216.81;;;10.26;57.78
36284;BME280;56085;48.910;9.478;2023-12-20T04:37:15;98223.91;;;10.24;58.00
36284;BME280;56085;48.910;9.478;2023-12-20T04:39:40;98229.84;;;10.26;58.18
36284;BME280;56085;48.910;9.478;2023-12-20T04:42:06;98238.88;;;10.23;58.30
36284;BME280;56085;48.910;9.478;2023-12-20T04:44:31;98233.06;;;10.28;57.99
36284;BME280;56085;48.910;9.478;2023-12-20T04:46:57;98244.84;;;10.09;57.86
36284;BME280;56085;48.910;9.478;2023-12-20T04:49:22;98249.56;;;10.24;58.17
36284;BME280;56085;48.910;9.478;2023-12-20T04:51:47;98236.47;;;10.37;57.72
36284;BME280;56085;48.910;9.478;2023-12-20T04:54:12;98246.44;;;10.61;56.54
36284;BME280;56085;48.910;9.478;2023-12-20T04:56:38;98247.81;;;10.52;56.41
36284;BME280;56085;48.910;9.478;2023-12-20T04:59:04;98243.44;;;10.15;57.63
36284;BME280;56085;48.910;9.478;2023-12-20T05:01:29;98248.25;;;10.18;58.03
36284;BME280;56085;48.910;9.478;2023-12-20T05:03:54;98242.72;;;10.34;57.34
36284;BME280;56085;48.910;9.478;2023-12-20T05:06:19;98251.97;;;10.61;56.64
36284;BME280;56085;48.910;9.478;2023-12-20T05:08:44;98251.97;;;11.00;55.58
36284;BME280;56085;48.910;9.478;2023-12-20T05:11:10;98249.50;;;10.56;56.37
36284;BME280;56085;48.910;9.478;2023-12-20T05:13:35;98241.91;;;10.18;57.07
36284;BME280;56085;48.910;9.478;2023-12-20T05:16:00;98247.50;;;10.37;57.07
36284;BME280;56085;48.910;9.478;2023-12-20T05:18:25;98248.78;;;10.24;58.01
36284;BME280;56085;48.910;9.478;2023-12-20T05:20:50;98257.66;;;10.33;57.24
36284;BME280;56085;48.910;9.478;2023-12-20T05:23:16;98266.34;;;10.51;57.18
36284;BME280;56085;48.910;9.478;2023-12-20T05:25:42;98262.56;;;10.40;56.62
36284;BME280;56085;48.910;9.478;2023-12-20T05:28:07;98260.25;;;10.61;56.75
36284;BME280;56085;48.910;9.478;2023-12-20T05:30:32;98255.81;;;10.37;57.65
36284;BME280;56085;48.910;9.478;2023-12-20T05:32:57;98263.84;;;10.10;58.16
36284;BME280;56085;48.910;9.478;2023-12-20T05:35:22;98264.31;;;10.32;58.03
36284;BME280;56085;48.910;9.478;2023-12-20T05:37:48;98261.66;;;10.52;57.62
36284;BME280;56085;48.910;9.478;2023-12-20T05:40:13;98267.84;;;10.64;56.92
36284;BME280;56085;48.910;9.478;2023-12-20T05:42:39;98263.41;;;10.79;56.88
36284;BME280;56085;48.910;9.478;2023-12-20T05:45:04;98271.25;;;10.58;57.02
36284;BME280;56085;48.910;9.478;2023-12-20T05:47:30;98273.44;;;10.33;58.64
36284;BME280;56085;48.910;9.478;2023-12-20T05:49:55;98278.47;;;10.11;59.05
36284;BME280;56085;48.910;9.478;2023-12-20T05:52:21;98285.28;;;10.33;58.66
36284;BME280;56085;48.910;9.478;2023-12-20T05:54:46;98289.19;;;10.32;58.95
36284;BME280;56085;48.910;9.478;2023-12-20T05:57:12;98291.84;;;10.60;58.33
36284;BME280;56085;48.910;9.478;2023-12-20T05:59:37;98296.91;;;10.23;59.25
36284;BME280;56085;48.910;9.478;2023-12-20T06:02:03;98304.22;;;10.67;58.49
36284;BME280;56085;48.910;9.478;2023-12-20T06:04:28;98309.28;;;10.29;59.47
36284;BME280;56085;48.910;9.478;2023-12-20T06:06:54;98313.72;;;10.50;59.44
36284;BME280;56085;48.910;9.478;2023-12-20T06:09:19;98317.72;;;10.52;58.83
36284;BME280;56085;48.910;9.478;2023-12-20T06:11:44;98313.66;;;10.46;59.40
36284;BME280;56085;48.910;9.478;2023-12-20T06:14:09;98318.56;;;10.21;59.80
36284;BME280;56085;48.910;9.478;2023-12-20T06:16:34;98313.22;;;10.28;60.32
36284;BME280;56085;48.910;9.478;2023-12-20T06:19:00;98311.78;;;10.50;59.55
36284;BME280;56085;48.910;9.478;2023-12-20T06:21:25;98319.78;;;10.39;60.63
36284;BME280;56085;48.910;9.478;2023-12-20T06:23:50;98317.81;;;10.56;59.38
36284;BME280;56085;48.910;9.478;2023-12-20T06:26:15;98310.38;;;10.60;59.44
36284;BME280;56085;48.910;9.478;2023-12-20T06:28:40;98319.16;;;10.30;60.54
36284;BME280;56085;48.910;9.478;2023-12-20T06:31:06;98326.41;;;10.19;61.43
36284;BME280;56085;48.910;9.478;2023-12-20T06:33:31;98314.81;;;10.13;61.80
36284;BME280;56085;48.910;9.478;2023-12-20T06:35:56;98315.50;;;10.58;60.09
36284;BME280;56085;48.910;9.478;2023-12-20T06:38:21;98321.88;;;10.78;59.40
36284;BME280;56085;48.910;9.478;2023-12-20T06:40:47;98316.97;;;10.36;59.95
36284;BME280;56085;48.910;9.478;2023-12-20T06:43:12;98310.94;;;10.50;60.50
36284;BME280;56085;48.910;9.478;2023-12-20T06:45:38;98322.66;;;10.43;60.27
36284;BME280;56085;48.910;9.478;2023-12-20T06:48:03;98327.34;;;10.26;61.35
36284;BME280;56085;48.910;9.478;2023-12-20T06:50:28;98328.44;;;10.06;62.07
36284;BME280;56085;48.910;9.478;2023-12-20T06:52:54;98321.56;;;10.31;60.98
36284;BME280;56085;48.910;9.478;2023-12-20T06:55:19;98333.25;;;10.25;61.93
36284;BME280;56085;48.910;9.478;2023-12-20T06:57:44;98329.97;;;10.19;61.26
36284;BME280;56085;48.910;9.478;2023-12-20T07:00:10;98326.56;;;10.42;61.16
36284;BME280;56085;48.910;9.478;2023-12-20T07:02:36;98346.09;;;10.33;61.18
36284;BME280;56085;48.910;9.478;2023-12-20T07:05:01;98341.91;;;10.23;60.87
36284;BME280;56085;48.910;9.478;2023-12-20T07:07:26;98349.22;;;10.47;60.54
36284;BME280;56085;48.910;9.478;2023-12-20T07:09:51;98355.09;;;9.98;61.57
36284;BME280;56085;48.910;9.478;2023-12-20T07:12:17;98358.56;;;9.95;62.71
36284;BME280;56085;48.910;9.478;2023-12-20T07:14:44;98355.09;;;10.46;61.38
36284;BME280;56085;48.910;9.478;2023-12-20T07:17:09;98349.84;;;10.41;61.34
36284;BME280;56085;48.910;9.478;2023-12-20T07:19:37;98358.13;;;10.25;61.17
36284;BME280;56085;48.910;9.478;2023-12-20T07:22:02;98363.41;;;10.46;61.29
36284;BME280;56085;48.910;9.478;2023-12-20T07:24:27;98358.41;;;10.52;60.90
36284;BME280;56085;48.910;9.478;2023-12-20T07:26:52;98373.03;;;10.52;60.44
36284;BME280;56085;48.910;9.478;2023-12-20T07:29:17;98381.25;;;10.48;60.72
36284;BME280;56085;48.910;9.478;2023-12-20T07:31:42;98381.94;;;10.29;60.53
36284;BME280;56085;48.910;9.478;2023-12-20T07:34:08;98373.28;;;10.15;61.27
36284;BME280;56085;48.910;9.478;2023-12-20T07:36:33;98389.50;;;10.01;62.33
36284;BME280;56085;48.910;9.478;2023-12-20T07:38:58;98381.94;;;9.98;61.96
36284;BME280;56085;48.910;9.478;2023-12-20T07:41:23;98393.53;;;10.35;61.40
36284;BME280;56085;48.910;9.478;2023-12-20T07:43:48;98393.75;;;9.98;61.55
36284;BME280;56085;48.910;9.478;2023-12-20T07:46:14;98394.50;;;10.11;62.29
36284;BME280;56085;48.910;9.478;2023-12-20T07:48:39;98395.47;;;10.03;62.21
36284;BME280;56085;48.910;9.478;2023-12-20T07:51:04;98401.47;;;9.76;62.34
36284;BME280;56085;48.910;9.478;2023-12-20T07:53:32;98398.41;;;10.26;61.37
36284;BME280;56085;48.910;9.478;2023-12-20T07:55:57;98395.97;;;10.37;61.10
36284;BME280;56085;48.910;9.478;2023-12-20T07:58:22;98401.25;;;9.98;61.61
36284;BME280;56085;48.910;9.478;2023-12-20T08:00:47;98411.13;;;10.43;60.84
36284;BME280;56085;48.910;9.478;2023-12-20T08:03:12;98407.34;;;10.35;60.34
36284;BME280;56085;48.910;9.478;2023-12-20T08:05:38;98412.88;;;10.51;59.67
36284;BME280;56085;48.910;9.478;2023-12-20T08:08:05;98412.06;;;10.19;60.17
36284;BME280;56085;48.910;9.478;2023-12-20T08:10:30;98411.06;;;10.11;60.81
36284;BME280;56085;48.910;9.478;2023-12-20T08:12:55;98408.84;;;10.17;60.51
36284;BME280;56085;48.910;9.478;2023-12-20T08:15:21;98415.59;;;9.87;60.85
36284;BME280;56085;48.910;9.478;2023-12-20T08:17:46;98420.59;;;9.98;60.21
36284;BME280;56085;48.910;9.478;2023-12-20T08:20:11;98421.22;;;10.07;59.59
36284;BME280;56085;48.910;9.478;2023-12-20T08:22:36;98434.81;;;9.84;59.61
36284;BME280;56085;48.910;9.478;2023-12-20T08:25:01;98435.34;;;10.50;58.67
36284;BME280;56085;48.910;9.478;2023-12-20T08:27:27;98422.03;;;10.23;58.51
36284;BME280;56085;48.910;9.478;2023-12-20T08:29:52;98434.88;;;10.31;58.44
36284;BME280;56085;48.910;9.478;2023-12-20T08:32:17;98436.56;;;10.20;57.98
36284;BME280;56085;48.910;9.478;2023-12-20T08:34:42;98442.38;;;10.31;57.70
36284;BME280;56085;48.910;9.478;2023-12-20T08:37:07;98460.09;;;10.14;58.02
36284;BME280;56085;48.910;9.478;2023-12-20T08:39:32;98454.09;;;9.96;58.75
36284;BME280;56085;48.910;9.478;2023-12-20T08:41:58;98456.06;;;10.40;57.78
36284;BME280;56085;48.910;9.478;2023-12-20T08:44:23;98464.84;;;10.29;57.69
36284;BME280;56085;48.910;9.478;2023-12-20T08:46:48;98455.22;;;10.39;56.69
36284;BME280;56085;48.910;9.478;2023-12-20T08:49:14;98457.38;;;10.62;56.15
36284;BME280;56085;48.910;9.478;2023-12-20T08:51:39;98458.72;;;10.52;56.00
36284;BME280;56085;48.910;9.478;2023-12-20T08:54:06;98453.44;;;10.31;56.31
36284;BME280;56085;48.910;9.478;2023-12-20T08:56:33;98450.41;;;10.36;56.73
36284;BME280;56085;48.910;9.478;2023-12-20T08:58:58;98445.00;;;10.40;55.89
36284;BME280;56085;48.910;9.478;2023-12-20T09:01:23;98446.59;;;10.41;55.97
36284;BME280;56085;48.910;9.478;2023-12-20T09:03:49;98440.06;;;10.65;55.31
36284;BME280;56085;48.910;9.478;2023-12-20T09:06:14;98445.50;;;10.29;55.43
36284;BME280;56085;48.910;9.478;2023-12-20T09:08:39;98444.09;;;10.52;55.20
36284;BME280;56085;48.910;9.478;2023-12-20T09:11:04;98444.91;;;10.52;55.23
36284;BME280;56085;48.910;9.478;2023-12-20T09:13:29;98447.34;;;10.89;54.55
36284;BME280;56085;48.910;9.478;2023-12-20T09:15:56;98445.41;;;10.74;54.17
36284;BME280;56085;48.910;9.478;2023-12-20T09:18:22;98444.59;;;10.89;53.56
36284;BME280;56085;48.910;9.478;2023-12-20T09:20:47;98440.06;;;11.16;53.27
36284;BME280;56085;48.910;9.478;2023-12-20T09:23:12;98435.88;;;11.42;52.52
36284;BME280;56085;48.910;9.478;2023-12-20T09:25:37;98444.06;;;10.99;52.27
36284;BME280;56085;48.910;9.478;2023-12-20T09:28:02;98450.78;;;11.18;52.33
36284;BME280;56085;48.910;9.478;2023-12-20T09:30:28;98446.22;;;11.26;51.56
36284;BME280;56085;48.910;9.478;2023-12-20T09:32:54;98445.75;;;11.43;51.26
36284;BME280;56085;48.910;9.478;2023-12-20T09:35:19;98449.03;;;11.29;51.20
36284;BME280;56085;48.910;9.478;2023-12-20T09:37:45;98436.03;;;11.14;51.33
36284;BME280;56085;48.910;9.478;2023-12-20T09:40:12;98439.00;;;11.60;50.84
36284;BME280;56085;48.910;9.478;2023-12-20T09:42:39;98445.06;;;11.66;50.36
36284;BME280;56085;48.910;9.478;2023-12-20T09:45:08;98443.81;;;11.83;50.65
36284;BME280;56085;48.910;9.478;2023-12-20T09:47:33;98453.72;;;11.64;50.19
36284;BME280;56085;48.910;9.478;2023-12-20T09:49:59;98452.91;;;12.03;49.54
36284;BME280;56085;48.910;9.478;2023-12-20T09:52:25;98460.28;;;12.38;49.00
36284;BME280;56085;48.910;9.478;2023-12-20T09:54:50;98450.72;;;11.93;49.10
36284;BME280;56085;48.910;9.478;2023-12-20T09:57:17;98460.13;;;11.88;49.21
36284;BME280;56085;48.910;9.478;2023-12-20T09:59:42;98458.78;;;11.98;48.66
36284;BME280;56085;48.910;9.478;2023-12-20T10:02:08;98457.00;;;11.90;48.49
36284;BME280;56085;48.910;9.478;2023-12-20T10:04:35;98457.28;;;11.65;48.51
36284;BME280;56085;48.910;9.478;2023-12-20T10:07:04;98447.44;;;11.87;48.00
36284;BME280;56085;48.910;9.478;2023-12-20T10:09:29;98445.34;;;11.41;47.94
36284;BME280;56085;48.910;9.478;2023-12-20T10:11:56;98452.88;;;11.99;47.91
36284;BME280;56085;48.910;9.478;2023-12-20T10:14:22;98453.06;;;12.10;47.31
36284;BME280;56085;48.910;9.478;2023-12-20T10:16:48;98450.97;;;12.03;47.11
36284;BME280;56085;48.910;9.478;2023-12-20T10:19:15;98445.13;;;12.55;46.57
36284;BME280;56085;48.910;9.478;2023-12-20T10:21:41;98443.69;;;12.88;45.43
36284;BME280;56085;48.910;9.478;2023-12-20T10:24:06;98436.97;;;12.66;45.03
36284;BME280;56085;48.910;9.478;2023-12-20T10:26:31;98439.47;;;12.25;44.51
36284;BME280;56085;48.910;9.478;2023-12-20T10:29:00;98442.06;;;12.37;44.25
36284;BME280;56085;48.910;9.478;2023-12-20T10:31:34;98433.03;;;12.67;44.68
36284;BME280;56085;48.910;9.478;2023-12-20T10:34:00;98424.31;;;12.42;44.62
36284;BME280;56085;48.910;9.478;2023-12-20T10:36:26;98418.03;;;12.45;44.33
36284;BME280;56085;48.910;9.478;2023-12-20T10:38:52;98418.19;;;12.32;44.07
36284;BME280;56085;48.910;9.478;2023-12-20T10:41:18;98423.56;;;12.45;44.19
36284;BME280;56085;48.910;9.478;2023-12-20T10:43:47;98424.50;;;12.29;43.80
36284;BME280;56085;48.910;9.478;2023-12-20T10:46:12;98417.28;;;12.25;44.42
36284;BME280;56085;48.910;9.478;2023-12-20T10:48:38;98421.53;;;12.18;44.53
36284;BME280;56085;48.910;9.478;2023-12-20T10:51:04;98407.66;;;11.56;44.58
36284;BME280;56085;48.910;9.478;2023-12-20T10:53:30;98415.63;;;11.77;44.94
36284;BME280;56085;48.910;9.478;2023-12-20T10:55:55;98409.63;;;11.75;44.34
36284;BME280;56085;48.910;9.478;2023-12-20T10:58:24;98396.81;;;14.08;40.89
36284;BME280;56085;48.910;9.478;2023-12-20T11:00:49;98388.13;;;17.91;33.83
36284;BME280;56085;48.910;9.478;2023-12-20T11:03:18;98383.44;;;20.71;29.89
36284;BME280;56085;48.910;9.478;2023-12-20T11:06:03;98386.28;;;20.67;28.02
36284;BME280;56085;48.910;9.478;2023-12-20T11:08:51;98386.56;;;21.60;26.23
36284;BME280;56085;48.910;9.478;2023-12-20T11:11:26;98369.69;;;23.84;24.13
36284;BME280;56085;48.910;9.478;2023-12-20T11:14:05;98381.41;;;19.59;27.81
36284;BME280;56085;48.910;9.478;2023-12-20T11:16:31;98380.22;;;17.71;30.06
36284;BME280;56085;48.910;9.478;2023-12-20T11:18:57;98390.50;;;15.22;34.48
36284;BME280;56085;48.910;9.478;2023-12-20T11:21:22;98388.06;;;16.19;33.47
36284;BME280;56085;48.910;9.478;2023-12-20T11:23:47;98388.78;;;14.96;35.31
36284;BME280;56085;48.910;9.478;2023-12-20T11:26:13;98376.34;;;14.30;37.11
36284;BME280;56085;48.910;9.478;2023-12-20T11:28:40;98363.41;;;15.12;35.56
36284;BME280;56085;48.910;9.478;2023-12-20T11:31:05;98358.94;;;18.93;31.16
36284;BME280;56085;48.910;9.478;2023-12-20T11:33:31;98367.06;;;19.53;29.08
36284;BME280;56085;48.910;9.478;2023-12-20T11:36:00;98371.34;;;22.80;25.27
36284;BME280;56085;48.910;9.478;2023-12-20T11:38:25;98358.38;;;22.17;24.72
36284;BME280;56085;48.910;9.478;2023-12-20T11:40:50;98360.28;;;23.02;23.01
36284;BME280;56085;48.910;9.478;2023-12-20T11:43:31;98372.03;;;18.09;27.89
36284;BME280;56085;48.910;9.478;2023-12-20T11:46:02;98387.19;;;14.46;34.37
36284;BME280;56085;48.910;9.478;2023-12-20T11:48:27;98394.28;;;13.27;37.63
36284;BME280;56085;48.910;9.478;2023-12-20T11:50:53;98395.41;;;11.96;39.76
36284;BME280;56085;48.910;9.478;2023-12-20T11:53:18;98385.81;;;11.51;41.40
36284;BME280;56085;48.910;9.478;2023-12-20T11:55:47;98404.91;;;11.17;42.49
36284;BME280;56085;48.910;9.478;2023-12-20T11:58:12;98399.91;;;10.71;42.92
36284;BME280;56085;48.910;9.478;2023-12-20T12:00:38;98397.81;;;10.64;43.40
36284;BME280;56085;48.910;9.478;2023-12-20T12:03:03;98395.97;;;10.37;44.29
36284;BME280;56085;48.910;9.478;2023-12-20T12:05:30;98395.03;;;10.33;44.50
36284;BME280;56085;48.910;9.478;2023-12-20T12:07:55;98389.63;;;10.36;44.84
36284;BME280;56085;48.910;9.478;2023-12-20T12:10:21;98385.03;;;10.60;45.27
36284;BME280;56085;48.910;9.478;2023-12-20T12:12:46;98394.50;;;10.27;45.59
36284;BME280;56085;48.910;9.478;2023-12-20T12:15:12;98379.81;;;10.39;45.66
36284;BME280;56085;48.910;9.478;2023-12-20T12:17:37;98370.66;;;10.70;45.59
36284;BME280;56085;48.910;9.478;2023-12-20T12:20:04;98374.72;;;10.41;45.73
36284;BME280;56085;48.910;9.478;2023-12-20T12:22:29;98363.22;;;10.39;45.80
36284;BME280;56085;48.910;9.478;2023-12-20T12:24:55;98358.63;;;10.62;45.38
36284;BME280;56085;48.910;9.478;2023-12-20T12:27:23;98366.06;;;10.94;44.98
36284;BME280;56085;48.910;9.478;2023-12-20T12:30:02;98363.09;;;10.67;45.18
36284;BME280;56085;48.910;9.478;2023-12-20T12:32:28;98354.19;;;10.58;44.85
36284;BME280;56085;48.910;9.478;2023-12-20T12:34:53;98370.50;;;10.63;45.35
36284;BME280;56085;48.910;9.478;2023-12-20T12:37:19;98358.91;;;10.73;44.52
36284;BME280;56085;48.910;9.478;2023-12-20T12:39:46;98364.75;;;11.27;43.33
36284;BME280;56085;48.910;9.478;2023-12-20T12:42:11;98363.09;;;11.22;42.99
36284;BME280;56085;48.910;9.478;2023-12-20T12:44:36;98364.19;;;11.17;43.19
36284;BME280;56085;48.910;9.478;2023-12-20T12:47:01;98355.13;;;11.40;43.25
36284;BME280;56085;48.910;9.478;2023-12-20T12:49:28;98355.22;;;10.85;43.61
36284;BME280;56085;48.910;9.478;2023-12-20T12:51:53;98356.06;;;10.89;43.71